Terminal Aerodrome Forecast
Issued by NWS Wilmington, NC

Home | Current Version | Previous Version | Text Only | Print | Product List | Glossary On
Versions: 1 2 3 4 5 6 7 8 9 10 11 12 13 14
266
FTUS42 KILM 141720
TAFMYR
TAF
KMYR 141720Z 1418/1518 04011KT P6SM SCT120 SCT250
     FM142000 08011KT P6SM SCT050 BKN200
     FM150400 07009KT P6SM BKN050 OVC100
     FM151300 10006KT 6SM -RA BKN020
     FM151600 15009KT 3SM -RA BR BKN008=

USA.gov is the U.S. government's official web portal to all federal, state and local government web resources and services.